sensor_id;sensor_type;location;lat;lon;timestamp;P1;durP1;ratioP1;P2;durP2;ratioP2
71566;SDS011;59403;47.456;19.120;2024-02-23T00:00:06;4.45;;;2.25;;
71566;SDS011;59403;47.456;19.120;2024-02-23T00:02:35;3.40;;;2.30;;
71566;SDS011;59403;47.456;19.120;2024-02-23T00:05:03;4.10;;;2.08;;
71566;SDS011;59403;47.456;19.120;2024-02-23T00:07:30;4.93;;;2.45;;
71566;SDS011;59403;47.456;19.120;2024-02-23T00:09:56;5.43;;;2.20;;
71566;SDS011;59403;47.456;19.120;2024-02-23T00:12:24;4.57;;;2.20;;
71566;SDS011;59403;47.456;19.120;2024-02-23T00:14:51;3.93;;;2.23;;
71566;SDS011;59403;47.456;19.120;2024-02-23T00:17:18;3.97;;;2.10;;
71566;SDS011;59403;47.456;19.120;2024-02-23T00:19:45;3.92;;;2.37;;
71566;SDS011;59403;47.456;19.120;2024-02-23T00:22:11;4.22;;;2.05;;
71566;SDS011;59403;47.456;19.120;2024-02-23T00:24:38;3.87;;;2.47;;
71566;SDS011;59403;47.456;19.120;2024-02-23T00:27:05;4.17;;;2.70;;
71566;SDS011;59403;47.456;19.120;2024-02-23T00:29:34;3.37;;;2.33;;
71566;SDS011;59403;47.456;19.120;2024-02-23T00:32:01;4.68;;;2.80;;
71566;SDS011;59403;47.456;19.120;2024-02-23T00:34:28;5.32;;;2.90;;
71566;SDS011;59403;47.456;19.120;2024-02-23T00:36:56;4.72;;;2.62;;
71566;SDS011;59403;47.456;19.120;2024-02-23T00:39:22;4.33;;;2.30;;
71566;SDS011;59403;47.456;19.120;2024-02-23T00:41:49;5.15;;;2.92;;
71566;SDS011;59403;47.456;19.120;2024-02-23T00:44:15;4.50;;;3.03;;
71566;SDS011;59403;47.456;19.120;2024-02-23T00:46:43;3.80;;;2.72;;
71566;SDS011;59403;47.456;19.120;2024-02-23T00:49:10;4.40;;;3.12;;
71566;SDS011;59403;47.456;19.120;2024-02-23T00:51:37;4.97;;;3.23;;
71566;SDS011;59403;47.456;19.120;2024-02-23T00:54:03;4.93;;;3.20;;
71566;SDS011;59403;47.456;19.120;2024-02-23T00:56:30;4.85;;;3.40;;
71566;SDS011;59403;47.456;19.120;2024-02-23T00:58:57;4.22;;;2.60;;
71566;SDS011;59403;47.456;19.120;2024-02-23T01:01:24;5.47;;;2.70;;
71566;SDS011;59403;47.456;19.120;2024-02-23T01:03:52;4.83;;;2.70;;
71566;SDS011;59403;47.456;19.120;2024-02-23T01:06:19;5.70;;;2.78;;
71566;SDS011;59403;47.456;19.120;2024-02-23T01:08:46;5.07;;;2.40;;
71566;SDS011;59403;47.456;19.120;2024-02-23T01:11:12;3.55;;;2.42;;
71566;SDS011;59403;47.456;19.120;2024-02-23T01:13:39;4.50;;;2.30;;
71566;SDS011;59403;47.456;19.120;2024-02-23T01:16:06;4.40;;;2.50;;
71566;SDS011;59403;47.456;19.120;2024-02-23T01:18:33;5.12;;;2.58;;
71566;SDS011;59403;47.456;19.120;2024-02-23T01:21:01;3.75;;;2.47;;
71566;SDS011;59403;47.456;19.120;2024-02-23T01:23:28;5.30;;;2.95;;
71566;SDS011;59403;47.456;19.120;2024-02-23T01:25:54;5.03;;;2.97;;
71566;SDS011;59403;47.456;19.120;2024-02-23T01:28:21;4.10;;;2.70;;
71566;SDS011;59403;47.456;19.120;2024-02-23T01:30:47;5.37;;;3.05;;
71566;SDS011;59403;47.456;19.120;2024-02-23T01:33:14;4.80;;;2.80;;
71566;SDS011;59403;47.456;19.120;2024-02-23T01:35:41;4.47;;;2.75;;
71566;SDS011;59403;47.456;19.120;2024-02-23T01:38:09;4.65;;;2.70;;
71566;SDS011;59403;47.456;19.120;2024-02-23T01:40:35;4.97;;;2.93;;
71566;SDS011;59403;47.456;19.120;2024-02-23T01:43:02;4.55;;;2.80;;
71566;SDS011;59403;47.456;19.120;2024-02-23T01:45:30;5.47;;;2.83;;
71566;SDS011;59403;47.456;19.120;2024-02-23T01:47:57;7.05;;;3.03;;
71566;SDS011;59403;47.456;19.120;2024-02-23T01:50:23;5.72;;;3.30;;
71566;SDS011;59403;47.456;19.120;2024-02-23T01:52:51;5.13;;;2.90;;
71566;SDS011;59403;47.456;19.120;2024-02-23T01:55:20;4.87;;;2.65;;
71566;SDS011;59403;47.456;19.120;2024-02-23T01:57:48;4.37;;;2.42;;
71566;SDS011;59403;47.456;19.120;2024-02-23T02:00:15;7.18;;;3.03;;
71566;SDS011;59403;47.456;19.120;2024-02-23T02:02:44;6.62;;;3.10;;
71566;SDS011;59403;47.456;19.120;2024-02-23T02:05:11;5.03;;;3.07;;
71566;SDS011;59403;47.456;19.120;2024-02-23T02:07:38;4.62;;;2.80;;
71566;SDS011;59403;47.456;19.120;2024-02-23T02:10:07;4.35;;;2.85;;
71566;SDS011;59403;47.456;19.120;2024-02-23T02:12:36;4.43;;;2.55;;
71566;SDS011;59403;47.456;19.120;2024-02-23T02:15:03;6.45;;;2.60;;
71566;SDS011;59403;47.456;19.120;2024-02-23T02:17:31;6.57;;;2.70;;
71566;SDS011;59403;47.456;19.120;2024-02-23T02:19:58;4.30;;;2.65;;
71566;SDS011;59403;47.456;19.120;2024-02-23T02:22:25;4.12;;;2.20;;
71566;SDS011;59403;47.456;19.120;2024-02-23T02:24:51;5.95;;;2.72;;
71566;SDS011;59403;47.456;19.120;2024-02-23T02:27:18;4.75;;;2.70;;
71566;SDS011;59403;47.456;19.120;2024-02-23T02:29:46;5.17;;;2.73;;
71566;SDS011;59403;47.456;19.120;2024-02-23T02:32:16;5.87;;;2.83;;
71566;SDS011;59403;47.456;19.120;2024-02-23T02:34:42;4.32;;;2.80;;
71566;SDS011;59403;47.456;19.120;2024-02-23T02:37:09;5.57;;;2.40;;
71566;SDS011;59403;47.456;19.120;2024-02-23T02:39:35;5.03;;;2.80;;
71566;SDS011;59403;47.456;19.120;2024-02-23T02:42:02;4.63;;;3.10;;
71566;SDS011;59403;47.456;19.120;2024-02-23T02:44:29;4.78;;;2.60;;
71566;SDS011;59403;47.456;19.120;2024-02-23T02:46:57;6.12;;;3.20;;
71566;SDS011;59403;47.456;19.120;2024-02-23T02:49:23;4.28;;;2.55;;
71566;SDS011;59403;47.456;19.120;2024-02-23T02:51:50;7.82;;;2.72;;
71566;SDS011;59403;47.456;19.120;2024-02-23T02:54:17;3.97;;;2.63;;
71566;SDS011;59403;47.456;19.120;2024-02-23T02:56:43;5.28;;;2.80;;
71566;SDS011;59403;47.456;19.120;2024-02-23T02:59:11;4.75;;;2.95;;
71566;SDS011;59403;47.456;19.120;2024-02-23T03:01:38;6.57;;;2.90;;
71566;SDS011;59403;47.456;19.120;2024-02-23T03:04:07;5.43;;;2.70;;
71566;SDS011;59403;47.456;19.120;2024-02-23T03:06:34;6.00;;;3.10;;
71566;SDS011;59403;47.456;19.120;2024-02-23T03:09:01;7.07;;;3.22;;
71566;SDS011;59403;47.456;19.120;2024-02-23T03:11:28;5.25;;;3.10;;
71566;SDS011;59403;47.456;19.120;2024-02-23T03:13:54;4.50;;;2.80;;
71566;SDS011;59403;47.456;19.120;2024-02-23T03:16:21;4.00;;;2.67;;
71566;SDS011;59403;47.456;19.120;2024-02-23T03:18:51;4.43;;;2.87;;
71566;SDS011;59403;47.456;19.120;2024-02-23T03:21:20;5.57;;;3.12;;
71566;SDS011;59403;47.456;19.120;2024-02-23T03:23:47;4.65;;;2.70;;
71566;SDS011;59403;47.456;19.120;2024-02-23T03:26:13;4.85;;;3.03;;
71566;SDS011;59403;47.456;19.120;2024-02-23T03:28:42;5.72;;;3.30;;
71566;SDS011;59403;47.456;19.120;2024-02-23T03:31:08;5.17;;;3.10;;
71566;SDS011;59403;47.456;19.120;2024-02-23T03:33:35;5.82;;;3.17;;
71566;SDS011;59403;47.456;19.120;2024-02-23T03:36:02;5.30;;;3.22;;
71566;SDS011;59403;47.456;19.120;2024-02-23T03:38:30;4.90;;;3.15;;
71566;SDS011;59403;47.456;19.120;2024-02-23T03:40:58;5.12;;;3.00;;
71566;SDS011;59403;47.456;19.120;2024-02-23T03:43:25;7.50;;;3.43;;
71566;SDS011;59403;47.456;19.120;2024-02-23T03:45:52;4.82;;;3.47;;
71566;SDS011;59403;47.456;19.120;2024-02-23T03:48:18;5.00;;;3.22;;
71566;SDS011;59403;47.456;19.120;2024-02-23T03:50:45;4.62;;;3.08;;
71566;SDS011;59403;47.456;19.120;2024-02-23T03:53:12;4.53;;;2.85;;
71566;SDS011;59403;47.456;19.120;2024-02-23T03:55:40;6.40;;;3.23;;
71566;SDS011;59403;47.456;19.120;2024-02-23T03:58:07;5.97;;;2.67;;
71566;SDS011;59403;47.456;19.120;2024-02-23T04:00:33;4.90;;;3.25;;
71566;SDS011;59403;47.456;19.120;2024-02-23T04:03:00;5.43;;;3.35;;
71566;SDS011;59403;47.456;19.120;2024-02-23T04:05:26;4.95;;;3.17;;
71566;SDS011;59403;47.456;19.120;2024-02-23T04:07:53;6.87;;;3.20;;
71566;SDS011;59403;47.456;19.120;2024-02-23T04:10:19;6.10;;;2.83;;
71566;SDS011;59403;47.456;19.120;2024-02-23T04:12:47;5.65;;;3.47;;
71566;SDS011;59403;47.456;19.120;2024-02-23T04:15:14;5.37;;;2.83;;
71566;SDS011;59403;47.456;19.120;2024-02-23T04:17:41;4.35;;;3.00;;
71566;SDS011;59403;47.456;19.120;2024-02-23T04:20:08;4.93;;;3.40;;
71566;SDS011;59403;47.456;19.120;2024-02-23T04:22:35;6.95;;;3.42;;
71566;SDS011;59403;47.456;19.120;2024-02-23T04:25:02;6.10;;;3.20;;
71566;SDS011;59403;47.456;19.120;2024-02-23T04:27:30;5.20;;;3.50;;
71566;SDS011;59403;47.456;19.120;2024-02-23T04:29:57;7.72;;;4.20;;
71566;SDS011;59403;47.456;19.120;2024-02-23T04:32:24;4.80;;;3.10;;
71566;SDS011;59403;47.456;19.120;2024-02-23T04:34:51;5.70;;;3.47;;
71566;SDS011;59403;47.456;19.120;2024-02-23T04:37:17;5.43;;;3.42;;
71566;SDS011;59403;47.456;19.120;2024-02-23T04:39:44;6.30;;;3.50;;
71566;SDS011;59403;47.456;19.120;2024-02-23T04:42:11;6.20;;;4.18;;
71566;SDS011;59403;47.456;19.120;2024-02-23T04:44:37;5.97;;;3.70;;
71566;SDS011;59403;47.456;19.120;2024-02-23T04:47:05;5.68;;;4.03;;
71566;SDS011;59403;47.456;19.120;2024-02-23T04:49:32;7.22;;;4.32;;
71566;SDS011;59403;47.456;19.120;2024-02-23T04:51:58;6.22;;;3.75;;
71566;SDS011;59403;47.456;19.120;2024-02-23T04:54:25;6.00;;;3.70;;
71566;SDS011;59403;47.456;19.120;2024-02-23T04:56:51;6.73;;;4.40;;
71566;SDS011;59403;47.456;19.120;2024-02-23T04:59:18;9.32;;;4.25;;
71566;SDS011;59403;47.456;19.120;2024-02-23T05:01:45;8.77;;;3.90;;
71566;SDS011;59403;47.456;19.120;2024-02-23T05:04:13;6.62;;;3.55;;
71566;SDS011;59403;47.456;19.120;2024-02-23T05:06:40;5.95;;;3.37;;
71566;SDS011;59403;47.456;19.120;2024-02-23T05:09:08;6.73;;;3.70;;
71566;SDS011;59403;47.456;19.120;2024-02-23T05:11:36;6.70;;;3.33;;
71566;SDS011;59403;47.456;19.120;2024-02-23T05:14:02;5.10;;;3.17;;
71566;SDS011;59403;47.456;19.120;2024-02-23T05:16:29;5.85;;;3.50;;
71566;SDS011;59403;47.456;19.120;2024-02-23T05:18:55;5.15;;;3.00;;
71566;SDS011;59403;47.456;19.120;2024-02-23T05:21:23;5.40;;;3.37;;
71566;SDS011;59403;47.456;19.120;2024-02-23T05:23:50;4.40;;;2.62;;
71566;SDS011;59403;47.456;19.120;2024-02-23T05:26:17;5.03;;;2.97;;
71566;SDS011;59403;47.456;19.120;2024-02-23T05:28:44;5.97;;;2.65;;
71566;SDS011;59403;47.456;19.120;2024-02-23T05:31:10;5.18;;;2.65;;
71566;SDS011;59403;47.456;19.120;2024-02-23T05:33:37;4.00;;;2.40;;
71566;SDS011;59403;47.456;19.120;2024-02-23T05:36:04;3.53;;;2.03;;
71566;SDS011;59403;47.456;19.120;2024-02-23T05:38:32;5.00;;;2.33;;
71566;SDS011;59403;47.456;19.120;2024-02-23T05:40:59;3.10;;;1.70;;
71566;SDS011;59403;47.456;19.120;2024-02-23T05:43:26;3.15;;;1.85;;
71566;SDS011;59403;47.456;19.120;2024-02-23T05:45:52;6.50;;;2.80;;
71566;SDS011;59403;47.456;19.120;2024-02-23T05:48:22;6.10;;;2.90;;
71566;SDS011;59403;47.456;19.120;2024-02-23T05:50:48;8.23;;;3.75;;
71566;SDS011;59403;47.456;19.120;2024-02-23T05:53:15;7.18;;;3.55;;
71566;SDS011;59403;47.456;19.120;2024-02-23T05:55:43;8.27;;;3.60;;
71566;SDS011;59403;47.456;19.120;2024-02-23T05:58:10;5.47;;;3.17;;
71566;SDS011;59403;47.456;19.120;2024-02-23T06:00:38;5.85;;;3.53;;
71566;SDS011;59403;47.456;19.120;2024-02-23T06:03:05;5.85;;;3.40;;
71566;SDS011;59403;47.456;19.120;2024-02-23T06:05:32;5.90;;;3.40;;
71566;SDS011;59403;47.456;19.120;2024-02-23T06:07:58;5.35;;;3.60;;
71566;SDS011;59403;47.456;19.120;2024-02-23T06:10:26;5.33;;;3.70;;
71566;SDS011;59403;47.456;19.120;2024-02-23T06:12:54;5.68;;;3.37;;
71566;SDS011;59403;47.456;19.120;2024-02-23T06:15:21;6.62;;;3.70;;
71566;SDS011;59403;47.456;19.120;2024-02-23T06:17:47;6.00;;;3.85;;
71566;SDS011;59403;47.456;19.120;2024-02-23T06:20:14;6.60;;;4.05;;
71566;SDS011;59403;47.456;19.120;2024-02-23T06:22:41;6.90;;;4.37;;
71566;SDS011;59403;47.456;19.120;2024-02-23T06:25:07;6.85;;;4.00;;
71566;SDS011;59403;47.456;19.120;2024-02-23T06:27:35;7.32;;;3.92;;
71566;SDS011;59403;47.456;19.120;2024-02-23T06:30:03;8.27;;;4.50;;
71566;SDS011;59403;47.456;19.120;2024-02-23T06:32:31;6.25;;;4.60;;
71566;SDS011;59403;47.456;19.120;2024-02-23T06:34:57;9.67;;;4.63;;
71566;SDS011;59403;47.456;19.120;2024-02-23T06:37:24;8.10;;;4.75;;
71566;SDS011;59403;47.456;19.120;2024-02-23T06:39:50;8.85;;;5.28;;
71566;SDS011;59403;47.456;19.120;2024-02-23T06:42:19;8.85;;;4.35;;
71566;SDS011;59403;47.456;19.120;2024-02-23T06:44:48;8.15;;;4.62;;
71566;SDS011;59403;47.456;19.120;2024-02-23T06:47:16;7.13;;;4.57;;
71566;SDS011;59403;47.456;19.120;2024-02-23T06:49:43;8.90;;;4.65;;
71566;SDS011;59403;47.456;19.120;2024-02-23T06:52:10;8.30;;;5.20;;
71566;SDS011;59403;47.456;19.120;2024-02-23T06:54:37;8.07;;;5.05;;
71566;SDS011;59403;47.456;19.120;2024-02-23T06:57:04;9.10;;;4.93;;
71566;SDS011;59403;47.456;19.120;2024-02-23T06:59:30;13.73;;;6.20;;
71566;SDS011;59403;47.456;19.120;2024-02-23T07:01:57;7.43;;;5.22;;
71566;SDS011;59403;47.456;19.120;2024-02-23T07:04:25;9.63;;;5.50;;
71566;SDS011;59403;47.456;19.120;2024-02-23T07:06:52;9.80;;;5.30;;
71566;SDS011;59403;47.456;19.120;2024-02-23T07:09:18;7.05;;;4.95;;
71566;SDS011;59403;47.456;19.120;2024-02-23T07:11:45;8.07;;;5.00;;
71566;SDS011;59403;47.456;19.120;2024-02-23T07:14:12;7.80;;;5.05;;
71566;SDS011;59403;47.456;19.120;2024-02-23T07:16:39;8.55;;;5.70;;
71566;SDS011;59403;47.456;19.120;2024-02-23T07:19:06;8.57;;;5.35;;
71566;SDS011;59403;47.456;19.120;2024-02-23T07:21:35;8.88;;;5.72;;
71566;SDS011;59403;47.456;19.120;2024-02-23T07:24:01;9.00;;;5.70;;
71566;SDS011;59403;47.456;19.120;2024-02-23T07:26:28;9.48;;;5.85;;
71566;SDS011;59403;47.456;19.120;2024-02-23T07:28:55;10.25;;;6.35;;
71566;SDS011;59403;47.456;19.120;2024-02-23T07:31:22;11.70;;;6.75;;
71566;SDS011;59403;47.456;19.120;2024-02-23T07:33:48;10.75;;;6.07;;
71566;SDS011;59403;47.456;19.120;2024-02-23T07:36:16;9.23;;;6.20;;
71566;SDS011;59403;47.456;19.120;2024-02-23T07:38:44;9.90;;;6.70;;
71566;SDS011;59403;47.456;19.120;2024-02-23T07:41:10;11.07;;;7.00;;
71566;SDS011;59403;47.456;19.120;2024-02-23T07:43:38;11.23;;;6.85;;
71566;SDS011;59403;47.456;19.120;2024-02-23T07:46:04;12.20;;;6.85;;
71566;SDS011;59403;47.456;19.120;2024-02-23T07:48:33;11.17;;;6.80;;
71566;SDS011;59403;47.456;19.120;2024-02-23T07:51:02;12.15;;;6.87;;
71566;SDS011;59403;47.456;19.120;2024-02-23T07:53:29;13.15;;;7.03;;
71566;SDS011;59403;47.456;19.120;2024-02-23T07:55:58;10.50;;;7.12;;
71566;SDS011;59403;47.456;19.120;2024-02-23T07:58:27;10.43;;;6.40;;
71566;SDS011;59403;47.456;19.120;2024-02-23T08:00:54;10.40;;;6.70;;
71566;SDS011;59403;47.456;19.120;2024-02-23T08:03:21;11.55;;;7.30;;
71566;SDS011;59403;47.456;19.120;2024-02-23T08:05:48;10.18;;;7.32;;
71566;SDS011;59403;47.456;19.120;2024-02-23T08:08:14;8.80;;;6.80;;
71566;SDS011;59403;47.456;19.120;2024-02-23T08:10:41;10.20;;;6.43;;
71566;SDS011;59403;47.456;19.120;2024-02-23T08:13:09;11.00;;;6.87;;
71566;SDS011;59403;47.456;19.120;2024-02-23T08:15:36;10.05;;;6.18;;
71566;SDS011;59403;47.456;19.120;2024-02-23T08:18:03;10.00;;;6.22;;
71566;SDS011;59403;47.456;19.120;2024-02-23T08:20:29;9.27;;;5.72;;
71566;SDS011;59403;47.456;19.120;2024-02-23T08:22:56;10.63;;;5.85;;
71566;SDS011;59403;47.456;19.120;2024-02-23T08:25:23;9.70;;;6.27;;
71566;SDS011;59403;47.456;19.120;2024-02-23T08:27:49;10.15;;;6.07;;
71566;SDS011;59403;47.456;19.120;2024-02-23T08:30:17;11.55;;;5.93;;
71566;SDS011;59403;47.456;19.120;2024-02-23T08:32:45;8.50;;;5.97;;
71566;SDS011;59403;47.456;19.120;2024-02-23T08:35:12;10.35;;;6.15;;
71566;SDS011;59403;47.456;19.120;2024-02-23T08:37:38;9.63;;;6.03;;
71566;SDS011;59403;47.456;19.120;2024-02-23T08:40:07;10.63;;;5.90;;
71566;SDS011;59403;47.456;19.120;2024-02-23T08:42:34;13.52;;;6.22;;
71566;SDS011;59403;47.456;19.120;2024-02-23T08:45:01;9.90;;;6.00;;
71566;SDS011;59403;47.456;19.120;2024-02-23T08:47:29;11.57;;;5.97;;
71566;SDS011;59403;47.456;19.120;2024-02-23T08:49:57;10.17;;;5.67;;
71566;SDS011;59403;47.456;19.120;2024-02-23T08:52:30;8.65;;;5.65;;
71566;SDS011;59403;47.456;19.120;2024-02-23T08:54:56;9.93;;;6.05;;
71566;SDS011;59403;47.456;19.120;2024-02-23T08:57:23;9.30;;;6.05;;
71566;SDS011;59403;47.456;19.120;2024-02-23T08:59:51;8.65;;;5.90;;
71566;SDS011;59403;47.456;19.120;2024-02-23T09:02:17;9.30;;;6.47;;
71566;SDS011;59403;47.456;19.120;2024-02-23T09:04:45;9.93;;;6.60;;
71566;SDS011;59403;47.456;19.120;2024-02-23T09:07:12;12.27;;;6.43;;
71566;SDS011;59403;47.456;19.120;2024-02-23T09:09:39;8.93;;;5.80;;
71566;SDS011;59403;47.456;19.120;2024-02-23T09:12:06;8.68;;;6.07;;
71566;SDS011;59403;47.456;19.120;2024-02-23T09:14:35;10.63;;;6.13;;
71566;SDS011;59403;47.456;19.120;2024-02-23T09:17:02;9.02;;;6.50;;
71566;SDS011;59403;47.456;19.120;2024-02-23T09:19:29;8.13;;;6.00;;
71566;SDS011;59403;47.456;19.120;2024-02-23T09:21:57;8.90;;;6.20;;
71566;SDS011;59403;47.456;19.120;2024-02-23T09:24:25;9.80;;;5.78;;
71566;SDS011;59403;47.456;19.120;2024-02-23T09:26:51;10.13;;;6.27;;
71566;SDS011;59403;47.456;19.120;2024-02-23T09:29:18;7.28;;;5.30;;
71566;SDS011;59403;47.456;19.120;2024-02-23T09:31:45;9.38;;;6.28;;
71566;SDS011;59403;47.456;19.120;2024-02-23T09:34:11;10.80;;;5.20;;
71566;SDS011;59403;47.456;19.120;2024-02-23T09:36:38;11.65;;;5.37;;
71566;SDS011;59403;47.456;19.120;2024-02-23T09:39:06;9.03;;;5.07;;
71566;SDS011;59403;47.456;19.120;2024-02-23T09:41:32;9.18;;;5.47;;
71566;SDS011;59403;47.456;19.120;2024-02-23T09:44:00;9.20;;;5.35;;
71566;SDS011;59403;47.456;19.120;2024-02-23T09:46:27;6.93;;;4.60;;
71566;SDS011;59403;47.456;19.120;2024-02-23T09:48:55;7.68;;;4.45;;
71566;SDS011;59403;47.456;19.120;2024-02-23T09:51:22;7.33;;;4.80;;
71566;SDS011;59403;47.456;19.120;2024-02-23T09:53:49;7.18;;;4.90;;
71566;SDS011;59403;47.456;19.120;2024-02-23T09:56:17;8.38;;;4.90;;
71566;SDS011;59403;47.456;19.120;2024-02-23T09:58:47;7.07;;;4.72;;
71566;SDS011;59403;47.456;19.120;2024-02-23T10:01:15;7.37;;;4.95;;
71566;SDS011;59403;47.456;19.120;2024-02-23T10:03:51;8.57;;;5.73;;
71566;SDS011;59403;47.456;19.120;2024-02-23T10:06:18;9.48;;;5.97;;
71566;SDS011;59403;47.456;19.120;2024-02-23T10:08:45;10.13;;;6.03;;
71566;SDS011;59403;47.456;19.120;2024-02-23T10:11:11;14.75;;;8.25;;
71566;SDS011;59403;47.456;19.120;2024-02-23T10:13:40;10.25;;;6.53;;
71566;SDS011;59403;47.456;19.120;2024-02-23T10:16:07;14.17;;;7.17;;
71566;SDS011;59403;47.456;19.120;2024-02-23T10:18:34;12.23;;;7.22;;
71566;SDS011;59403;47.456;19.120;2024-02-23T10:21:04;15.20;;;7.20;;
71566;SDS011;59403;47.456;19.120;2024-02-23T10:23:31;11.52;;;6.95;;
71566;SDS011;59403;47.456;19.120;2024-02-23T10:25:58;11.57;;;6.72;;
71566;SDS011;59403;47.456;19.120;2024-02-23T10:28:24;10.40;;;6.53;;
71566;SDS011;59403;47.456;19.120;2024-02-23T10:30:55;8.05;;;5.55;;
71566;SDS011;59403;47.456;19.120;2024-02-23T10:33:46;10.70;;;6.28;;
71566;SDS011;59403;47.456;19.120;2024-02-23T10:36:15;8.70;;;6.00;;
71566;SDS011;59403;47.456;19.120;2024-02-23T10:38:45;8.82;;;5.85;;
71566;SDS011;59403;47.456;19.120;2024-02-23T10:41:13;9.07;;;6.00;;
71566;SDS011;59403;47.456;19.120;2024-02-23T10:43:41;8.20;;;5.60;;
71566;SDS011;59403;47.456;19.120;2024-02-23T10:46:11;9.32;;;5.45;;
71566;SDS011;59403;47.456;19.120;2024-02-23T10:48:39;8.05;;;4.53;;
71566;SDS011;59403;47.456;19.120;2024-02-23T10:51:07;7.37;;;4.60;;
71566;SDS011;59403;47.456;19.120;2024-02-23T10:53:34;9.27;;;4.73;;
71566;SDS011;59403;47.456;19.120;2024-02-23T10:56:02;6.37;;;4.20;;
71566;SDS011;59403;47.456;19.120;2024-02-23T10:58:30;7.65;;;3.97;;
71566;SDS011;59403;47.456;19.120;2024-02-23T11:00:58;9.00;;;4.10;;
71566;SDS011;59403;47.456;19.120;2024-02-23T11:03:29;7.65;;;4.00;;
71566;SDS011;59403;47.456;19.120;2024-02-23T11:05:56;8.07;;;4.00;;
71566;SDS011;59403;47.456;19.120;2024-02-23T11:08:23;6.10;;;3.50;;
71566;SDS011;59403;47.456;19.120;2024-02-23T11:10:50;6.20;;;3.22;;
71566;SDS011;59403;47.456;19.120;2024-02-23T11:13:17;6.10;;;3.60;;
71566;SDS011;59403;47.456;19.120;2024-02-23T11:15:44;7.60;;;3.60;;
71566;SDS011;59403;47.456;19.120;2024-02-23T11:18:23;4.60;;;3.40;;
71566;SDS011;59403;47.456;19.120;2024-02-23T11:20:55;4.68;;;3.20;;
71566;SDS011;59403;47.456;19.120;2024-02-23T11:23:22;4.62;;;2.83;;
71566;SDS011;59403;47.456;19.120;2024-02-23T11:26:04;6.62;;;3.42;;
71566;SDS011;59403;47.456;19.120;2024-02-23T11:28:31;5.22;;;3.12;;
71566;SDS011;59403;47.456;19.120;2024-02-23T11:30:58;5.83;;;3.80;;
71566;SDS011;59403;47.456;19.120;2024-02-23T11:33:27;5.93;;;3.62;;
71566;SDS011;59403;47.456;19.120;2024-02-23T11:36:05;5.95;;;3.50;;
71566;SDS011;59403;47.456;19.120;2024-02-23T11:38:33;5.78;;;3.45;;
71566;SDS011;59403;47.456;19.120;2024-02-23T11:41:00;7.45;;;3.97;;
71566;SDS011;59403;47.456;19.120;2024-02-23T11:43:27;5.87;;;3.47;;
71566;SDS011;59403;47.456;19.120;2024-02-23T11:45:54;5.97;;;3.50;;
71566;SDS011;59403;47.456;19.120;2024-02-23T11:48:21;7.10;;;3.67;;
71566;SDS011;59403;47.456;19.120;2024-02-23T11:50:47;5.70;;;3.75;;
71566;SDS011;59403;47.456;19.120;2024-02-23T11:53:21;6.55;;;3.92;;
71566;SDS011;59403;47.456;19.120;2024-02-23T11:55:58;6.40;;;4.43;;
71566;SDS011;59403;47.456;19.120;2024-02-23T12:01:50;8.60;;;5.70;;
71566;SDS011;59403;47.456;19.120;2024-02-23T12:04:18;7.57;;;5.00;;
71566;SDS011;59403;47.456;19.120;2024-02-23T12:06:45;7.55;;;5.40;;
71566;SDS011;59403;47.456;19.120;2024-02-23T12:09:13;8.70;;;5.50;;
71566;SDS011;59403;47.456;19.120;2024-02-23T12:11:41;10.45;;;5.25;;
71566;SDS011;59403;47.456;19.120;2024-02-23T12:14:07;8.00;;;5.43;;
71566;SDS011;59403;47.456;19.120;2024-02-23T12:16:35;8.60;;;5.45;;
71566;SDS011;59403;47.456;19.120;2024-02-23T12:19:01;9.35;;;6.12;;
71566;SDS011;59403;47.456;19.120;2024-02-23T12:21:28;9.47;;;5.67;;
71566;SDS011;59403;47.456;19.120;2024-02-23T12:23:55;13.25;;;5.60;;
71566;SDS011;59403;47.456;19.120;2024-02-23T12:26:23;11.35;;;6.72;;
71566;SDS011;59403;47.456;19.120;2024-02-23T12:28:50;8.35;;;4.82;;
71566;SDS011;59403;47.456;19.120;2024-02-23T12:31:17;8.60;;;5.10;;
71566;SDS011;59403;47.456;19.120;2024-02-23T12:33:50;8.97;;;5.47;;
71566;SDS011;59403;47.456;19.120;2024-02-23T12:36:17;8.80;;;4.97;;
71566;SDS011;59403;47.456;19.120;2024-02-23T12:38:44;7.20;;;5.12;;
71566;SDS011;59403;47.456;19.120;2024-02-23T12:41:10;9.82;;;4.93;;
71566;SDS011;59403;47.456;19.120;2024-02-23T12:43:38;10.32;;;5.57;;
71566;SDS011;59403;47.456;19.120;2024-02-23T12:46:05;8.00;;;5.53;;
71566;SDS011;59403;47.456;19.120;2024-02-23T12:48:33;9.35;;;6.12;;
71566;SDS011;59403;47.456;19.120;2024-02-23T12:51:00;8.40;;;5.57;;
71566;SDS011;59403;47.456;19.120;2024-02-23T12:53:30;11.40;;;6.32;;
71566;SDS011;59403;47.456;19.120;2024-02-23T12:55:59;11.05;;;6.50;;
71566;SDS011;59403;47.456;19.120;2024-02-23T12:58:27;10.33;;;7.13;;
71566;SDS011;59403;47.456;19.120;2024-02-23T13:00:56;14.20;;;7.43;;
71566;SDS011;59403;47.456;19.120;2024-02-23T13:03:24;10.18;;;6.78;;
71566;SDS011;59403;47.456;19.120;2024-02-23T13:05:51;10.32;;;7.03;;
71566;SDS011;59403;47.456;19.120;2024-02-23T13:08:18;10.18;;;7.15;;
71566;SDS011;59403;47.456;19.120;2024-02-23T13:10:45;10.53;;;7.00;;
71566;SDS011;59403;47.456;19.120;2024-02-23T13:13:11;11.48;;;6.72;;
71566;SDS011;59403;47.456;19.120;2024-02-23T13:15:39;10.18;;;6.60;;
71566;SDS011;59403;47.456;19.120;2024-02-23T13:18:08;9.02;;;6.75;;
71566;SDS011;59403;47.456;19.120;2024-02-23T13:20:34;11.63;;;6.72;;
71566;SDS011;59403;47.456;19.120;2024-02-23T13:23:01;9.53;;;6.60;;
71566;SDS011;59403;47.456;19.120;2024-02-23T13:25:28;10.13;;;6.60;;
71566;SDS011;59403;47.456;19.120;2024-02-23T13:27:55;11.93;;;6.78;;
71566;SDS011;59403;47.456;19.120;2024-02-23T13:30:23;10.40;;;6.15;;
71566;SDS011;59403;47.456;19.120;2024-02-23T13:32:50;8.63;;;6.37;;
71566;SDS011;59403;47.456;19.120;2024-02-23T13:35:18;11.37;;;7.10;;
71566;SDS011;59403;47.456;19.120;2024-02-23T13:37:44;9.27;;;6.47;;
71566;SDS011;59403;47.456;19.120;2024-02-23T13:40:11;9.63;;;6.75;;
71566;SDS011;59403;47.456;19.120;2024-02-23T13:42:38;10.75;;;6.43;;
71566;SDS011;59403;47.456;19.120;2024-02-23T13:45:05;11.12;;;6.90;;
71566;SDS011;59403;47.456;19.120;2024-02-23T13:47:33;9.97;;;7.03;;
71566;SDS011;59403;47.456;19.120;2024-02-23T13:50:00;11.45;;;7.37;;
71566;SDS011;59403;47.456;19.120;2024-02-23T13:52:28;9.52;;;7.00;;
71566;SDS011;59403;47.456;19.120;2024-02-23T13:54:55;12.13;;;7.78;;
71566;SDS011;59403;47.456;19.120;2024-02-23T13:57:22;11.40;;;7.62;;
71566;SDS011;59403;47.456;19.120;2024-02-23T13:59:49;11.20;;;7.80;;
71566;SDS011;59403;47.456;19.120;2024-02-23T14:02:16;38.30;;;17.10;;
71566;SDS011;59403;47.456;19.120;2024-02-23T14:04:43;22.25;;;12.32;;
71566;SDS011;59403;47.456;19.120;2024-02-23T14:07:11;18.95;;;11.75;;
71566;SDS011;59403;47.456;19.120;2024-02-23T14:09:39;18.60;;;11.52;;
71566;SDS011;59403;47.456;19.120;2024-02-23T14:12:06;16.73;;;11.53;;
71566;SDS011;59403;47.456;19.120;2024-02-23T14:14:33;21.58;;;14.13;;
71566;SDS011;59403;47.456;19.120;2024-02-23T14:16:59;20.00;;;14.35;;
71566;SDS011;59403;47.456;19.120;2024-02-23T14:19:26;12.25;;;8.90;;
71566;SDS011;59403;47.456;19.120;2024-02-23T14:21:53;11.85;;;7.90;;
71566;SDS011;59403;47.456;19.120;2024-02-23T14:24:19;14.87;;;8.30;;
71566;SDS011;59403;47.456;19.120;2024-02-23T14:26:47;13.55;;;9.05;;
71566;SDS011;59403;47.456;19.120;2024-02-23T14:29:14;16.02;;;9.68;;
71566;SDS011;59403;47.456;19.120;2024-02-23T14:31:42;14.50;;;9.45;;
71566;SDS011;59403;47.456;19.120;2024-02-23T14:34:09;14.57;;;9.32;;